createdAt,value
2023-03-08T00:00:51.631Z,97409.80
2023-03-08T00:04:49.458Z,97402.41
2023-03-08T00:08:47.525Z,97410.00
2023-03-08T00:12:52.379Z,97410.95
2023-03-08T00:16:50.420Z,97415.89
2023-03-08T00:20:48.382Z,97420.17
2023-03-08T00:24:46.400Z,97417.98
2023-03-08T00:28:44.368Z,97412.38
2023-03-08T00:32:42.462Z,97409.58
2023-03-08T00:36:40.363Z,97410.21
2023-03-08T00:40:41.449Z,97411.63
2023-03-08T00:44:39.352Z,97410.91
2023-03-08T00:48:37.407Z,97416.29
2023-03-08T00:52:36.411Z,97411.92
2023-03-08T00:56:34.372Z,97407.57
2023-03-08T01:00:32.433Z,97404.46
2023-03-08T01:04:30.424Z,97400.85
2023-03-08T01:08:29.356Z,97400.25
2023-03-08T01:12:29.347Z,97398.11
2023-03-08T01:16:34.293Z,97390.59
2023-03-08T01:20:32.396Z,97385.61
2023-03-08T01:24:30.377Z,97383.11
2023-03-08T01:28:28.351Z,97386.34
2023-03-08T01:32:26.381Z,97382.63
2023-03-08T01:36:27.317Z,97375.29
2023-03-08T01:40:29.267Z,97368.33
2023-03-08T01:44:35.369Z,97363.89
2023-03-08T01:48:35.348Z,97364.99
2023-03-08T01:52:54.308Z,97361.66
2023-03-08T01:56:53.287Z,97361.16
2023-03-08T02:00:53.375Z,97356.83
2023-03-08T02:04:51.330Z,97356.96
2023-03-08T02:08:51.462Z,97350.80
2023-03-08T02:12:50.355Z,97351.48
2023-03-08T02:16:48.338Z,97353.35
2023-03-08T02:20:49.301Z,97349.27
2023-03-08T02:24:47.277Z,97352.05
2023-03-08T02:28:47.203Z,97350.34
2023-03-08T02:32:45.404Z,97339.27
2023-03-08T02:36:43.286Z,97343.70
2023-03-08T02:40:42.365Z,97341.65
2023-03-08T02:44:40.245Z,97345.52
2023-03-08T02:48:40.263Z,97342.60
2023-03-08T02:52:38.190Z,97338.70
2023-03-08T02:56:36.325Z,97335.66
2023-03-08T03:00:39.499Z,97337.61
2023-03-08T03:04:37.197Z,97340.55
2023-03-08T03:08:35.172Z,97340.67
2023-03-08T03:12:33.363Z,97338.30
2023-03-08T03:16:32.133Z,97346.23
2023-03-08T03:20:30.154Z,97349.37
2023-03-08T03:24:28.134Z,97347.98
2023-03-08T03:28:26.222Z,97347.55
2023-03-08T03:32:24.207Z,97349.25
2023-03-08T03:36:27.237Z,97350.09
2023-03-08T03:40:25.123Z,97356.39
2023-03-08T03:44:25.156Z,97362.80
2023-03-08T03:48:24.120Z,97364.30
2023-03-08T03:52:22.247Z,97368.43
2023-03-08T03:56:32.111Z,97367.19
2023-03-08T04:00:31.246Z,97373.80
2023-03-08T04:04:35.236Z,97370.34
2023-03-08T04:08:33.101Z,97370.60
2023-03-08T04:12:31.141Z,97374.91
2023-03-08T04:16:32.113Z,97376.21
2023-03-08T04:20:33.141Z,97378.11
2023-03-08T04:24:31.165Z,97379.11
2023-03-08T04:28:33.064Z,97384.75
2023-03-08T04:32:31.276Z,97388.02
2023-03-08T04:36:31.116Z,97395.82
2023-03-08T04:40:29.127Z,97403.03
2023-03-08T04:44:27.112Z,97401.46
2023-03-08T04:48:27.135Z,97406.23
2023-03-08T04:52:25.025Z,97425.11
2023-03-08T04:56:23.091Z,97441.80
2023-03-08T05:00:21.084Z,97461.75
2023-03-08T05:04:19.196Z,97460.23
2023-03-08T05:08:17.029Z,97468.98
2023-03-08T05:12:15.108Z,97480.08
2023-03-08T05:16:21.021Z,97490.30
2023-03-08T05:20:19.024Z,97491.15
2023-03-08T05:24:16.950Z,97489.23
2023-03-08T05:28:15.113Z,97498.46
2023-03-08T05:32:13.078Z,97512.20
2023-03-08T05:36:11.060Z,97521.71
2023-03-08T05:40:12.967Z,97532.80
2023-03-08T05:44:10.981Z,97542.30
2023-03-08T05:48:09.005Z,97560.41
2023-03-08T05:52:07.081Z,97564.90
2023-03-08T05:56:04.967Z,97573.67
2023-03-08T06:00:04.159Z,97581.95
2023-03-08T06:04:08.909Z,97593.13
2023-03-08T06:08:07.985Z,97611.04
2023-03-08T06:12:05.952Z,97617.20
2023-03-08T06:16:07.926Z,97623.45
2023-03-08T06:20:06.915Z,97626.58
2023-03-08T06:24:05.921Z,97628.21
2023-03-08T06:28:03.872Z,97626.20
2023-03-08T06:32:02.944Z,97627.70
2023-03-08T06:36:20.892Z,97629.62
2023-03-08T06:40:19.962Z,97637.83
2023-03-08T06:44:17.873Z,97644.16
2023-03-08T06:48:15.887Z,97647.61
2023-03-08T06:52:14.991Z,97659.05
2023-03-08T06:56:13.938Z,97663.33
2023-03-08T06:59:51.339Z,97671.17
2023-03-08T07:03:15.379Z,97673.00
2023-03-08T07:06:39.528Z,97674.52
2023-03-08T07:10:04.837Z,97680.68
2023-03-08T07:13:29.938Z,97682.39
2023-03-08T07:16:54.080Z,97689.05
2023-03-08T07:20:20.716Z,97702.77
2023-03-08T07:23:44.571Z,97709.61
2023-03-08T07:27:08.495Z,97715.84
2023-03-08T07:30:32.824Z,97720.91
2023-03-08T07:33:58.712Z,97720.91
2023-03-08T07:37:23.061Z,97727.92
2023-03-08T07:40:47.020Z,97728.95
2023-03-08T07:44:11.011Z,97734.22
2023-03-08T07:47:34.978Z,97743.25
2023-03-08T07:51:08.975Z,97746.31
2023-03-08T07:54:33.064Z,97757.50
2023-03-08T07:57:57.304Z,97763.21
2023-03-08T08:01:21.474Z,97760.11
2023-03-08T08:04:45.490Z,97763.92
2023-03-08T08:08:10.382Z,97764.31
2023-03-08T08:11:35.032Z,97770.83
2023-03-08T08:14:59.956Z,97774.71
2023-03-08T08:18:24.952Z,97776.86
2023-03-08T08:21:49.414Z,97779.10
2023-03-08T08:25:13.336Z,97780.36
2023-03-08T08:28:38.580Z,97784.42
2023-03-08T08:32:04.350Z,97781.96
2023-03-08T08:35:42.066Z,97783.30
2023-03-08T08:39:07.060Z,97791.66
2023-03-08T08:42:30.929Z,97800.33
2023-03-08T08:45:58.018Z,97802.63
2023-03-08T08:49:22.046Z,97807.77
2023-03-08T08:52:47.178Z,97815.44
2023-03-08T08:56:26.265Z,97812.50
2023-03-08T08:59:51.420Z,97818.64
2023-03-08T09:03:15.605Z,97817.52
2023-03-08T09:06:40.016Z,97822.72
2023-03-08T09:10:04.016Z,97826.14
2023-03-08T09:13:28.300Z,97829.77
2023-03-08T09:16:53.758Z,97825.55
2023-03-08T09:20:21.503Z,97821.83
2023-03-08T09:23:47.198Z,97826.48
2023-03-08T09:27:11.387Z,97829.50
2023-03-08T09:30:35.390Z,97834.70
2023-03-08T09:34:01.303Z,97839.36
2023-03-08T09:37:28.871Z,97834.57
2023-03-08T09:41:15.973Z,97836.94
2023-03-08T09:45:07.387Z,97840.02
2023-03-08T09:48:33.453Z,97831.02
2023-03-08T09:52:04.336Z,97829.70
2023-03-08T09:55:31.469Z,97840.75
2023-03-08T09:59:01.288Z,97842.91
2023-03-08T10:02:28.943Z,97847.52
2023-03-08T10:06:05.258Z,97847.95
2023-03-08T10:09:37.326Z,97848.70
2023-03-08T10:13:20.146Z,97846.04
2023-03-08T10:16:49.855Z,97845.86
2023-03-08T10:20:25.360Z,97836.90
2023-03-08T10:23:59.852Z,97843.69
2023-03-08T10:27:33.177Z,97845.92
2023-03-08T10:31:00.390Z,97837.23
2023-03-08T10:34:31.680Z,97832.88
2023-03-08T10:37:55.900Z,97838.77
2023-03-08T10:41:22.646Z,97834.81
2023-03-08T10:44:55.745Z,97829.21
2023-03-08T10:48:22.545Z,97824.27
2023-03-08T10:51:59.029Z,97824.33
2023-03-08T10:55:31.503Z,97824.02
2023-03-08T10:58:58.274Z,97827.16
2023-03-08T11:02:24.632Z,97831.89
2023-03-08T11:06:00.843Z,97834.48
2023-03-08T11:09:28.437Z,97831.41
2023-03-08T11:13:17.640Z,97832.52
2023-03-08T11:17:08.237Z,97844.35
2023-03-08T11:20:45.658Z,97837.18
2023-03-08T11:24:40.975Z,97835.44
2023-03-08T11:28:15.566Z,97828.48
2023-03-08T11:32:13.865Z,97821.73
2023-03-08T11:36:01.034Z,97820.04
2023-03-08T11:39:34.434Z,97817.27
2023-03-08T11:43:19.416Z,97827.08
2023-03-08T11:47:02.524Z,97831.45
2023-03-08T11:50:40.674Z,97824.96
2023-03-08T11:54:16.644Z,97825.41
2023-03-08T11:57:47.812Z,97821.58
2023-03-08T12:01:27.414Z,97812.20
2023-03-08T12:05:06.817Z,97812.16
2023-03-08T12:08:38.359Z,97809.16
2023-03-08T12:12:26.316Z,97806.73
2023-03-08T12:15:56.478Z,97809.30
2023-03-08T12:19:47.470Z,97808.61
2023-03-08T12:23:44.378Z,97805.25
2023-03-08T12:27:28.696Z,97807.11
2023-03-08T12:31:26.632Z,97805.94
2023-03-08T12:35:05.895Z,97798.66
2023-03-08T12:38:41.168Z,97804.93
2023-03-08T12:42:11.121Z,97802.58
2023-03-08T12:45:35.731Z,97801.61
2023-03-08T12:49:00.074Z,97799.86
2023-03-08T12:52:41.996Z,97800.23
2023-03-08T12:56:12.061Z,97808.31
2023-03-08T12:59:39.488Z,97808.52
2023-03-08T13:03:23.389Z,97806.31
2023-03-08T13:06:53.202Z,97808.14
2023-03-08T13:10:20.069Z,97814.27
2023-03-08T13:13:57.645Z,97814.02
2023-03-08T13:17:30.860Z,97811.63
2023-03-08T13:21:06.053Z,97807.34
2023-03-08T13:24:50.959Z,97801.64
2023-03-08T13:28:18.137Z,97794.73
2023-03-08T13:31:42.423Z,97793.64
2023-03-08T13:35:07.011Z,97795.11
2023-03-08T13:38:37.441Z,97797.36
2023-03-08T13:42:29.340Z,97797.48
2023-03-08T13:45:56.312Z,97804.91
2023-03-08T13:49:24.821Z,97805.84
2023-03-08T13:52:49.723Z,97801.56
2023-03-08T13:56:25.550Z,97799.89
2023-03-08T13:59:52.047Z,97797.95
2023-03-08T14:03:20.760Z,97793.94
2023-03-08T14:06:56.761Z,97789.14
2023-03-08T14:10:24.500Z,97782.96
2023-03-08T14:13:53.284Z,97776.52
2023-03-08T14:17:24.621Z,97778.25
2023-03-08T14:21:01.486Z,97771.45
2023-03-08T14:24:28.061Z,97766.55
2023-03-08T14:27:52.289Z,97769.36
2023-03-08T14:31:43.337Z,97761.39
2023-03-08T14:35:45.791Z,97757.48
2023-03-08T14:39:46.479Z,97748.75
2023-03-08T14:43:44.312Z,97741.92
2023-03-08T14:47:45.293Z,97732.98
2023-03-08T14:51:54.399Z,97731.54
2023-03-08T14:55:52.251Z,97726.36
2023-03-08T14:59:55.403Z,97718.69
2023-03-08T15:03:53.404Z,97712.33
2023-03-08T15:07:51.307Z,97710.45
2023-03-08T15:11:50.258Z,97706.67
2023-03-08T15:15:48.337Z,97708.01
2023-03-08T15:19:48.233Z,97706.34
2023-03-08T15:23:51.190Z,97698.29
2023-03-08T15:27:49.913Z,97693.65
2023-03-08T15:31:48.249Z,97690.27
2023-03-08T15:35:46.255Z,97683.98
2023-03-08T15:39:44.241Z,97687.77
2023-03-08T15:43:42.272Z,97686.83
2023-03-08T15:47:40.345Z,97683.41
2023-03-08T15:51:44.191Z,97679.74
2023-03-08T15:55:43.187Z,97678.47
2023-03-08T15:59:41.176Z,97681.04
2023-03-08T16:03:39.207Z,97676.90
2023-03-08T16:07:37.201Z,97679.02
2023-03-08T16:11:35.481Z,97680.70
2023-03-08T16:15:33.186Z,97670.39
2023-03-08T16:19:31.177Z,97662.25
2023-03-08T16:23:29.339Z,97651.41
2023-03-08T16:27:27.207Z,97648.00
2023-03-08T16:31:25.214Z,97649.59
2023-03-08T16:35:23.121Z,97648.13
2023-03-08T16:39:22.281Z,97649.04
2023-03-08T16:43:20.168Z,97648.20
2023-03-08T16:47:18.127Z,97655.23
2023-03-08T16:51:16.408Z,97661.48
2023-03-08T16:55:14.098Z,97661.48
2023-03-08T16:59:16.276Z,97663.34
2023-03-08T17:03:14.127Z,97658.34
2023-03-08T17:07:15.102Z,97653.09
2023-03-08T17:11:13.158Z,97648.09
2023-03-08T17:15:12.278Z,97635.79
2023-03-08T17:19:11.063Z,97628.42
2023-03-08T17:23:09.080Z,97626.67
2023-03-08T17:27:07.120Z,97630.42
2023-03-08T17:31:05.142Z,97626.09
2023-03-08T17:35:03.025Z,97624.33
2023-03-08T17:39:01.064Z,97625.42
2023-03-08T17:42:59.063Z,97637.33
2023-03-08T17:46:57.040Z,97639.17
2023-03-08T17:50:55.026Z,97639.17
2023-03-08T17:54:54.031Z,97643.85
2023-03-08T17:58:52.083Z,97645.01
2023-03-08T18:02:50.519Z,97649.96
2023-03-08T18:06:53.980Z,97651.85
2023-03-08T18:10:54.011Z,97654.02
2023-03-08T18:14:54.049Z,97651.26
2023-03-08T18:18:52.145Z,97650.58
2023-03-08T18:22:54.016Z,97653.11
2023-03-08T18:26:52.071Z,97649.92
2023-03-08T18:30:49.972Z,97653.77
2023-03-08T18:34:49.043Z,97651.48
2023-03-08T18:38:46.968Z,97656.05
2023-03-08T18:42:45.015Z,97648.84
2023-03-08T18:46:44.993Z,97642.67
2023-03-08T18:50:43.007Z,97634.18
2023-03-08T18:54:40.991Z,97626.52
2023-03-08T18:58:39.059Z,97626.17
2023-03-08T19:02:36.957Z,97626.75
2023-03-08T19:06:35.066Z,97630.17
2023-03-08T19:10:33.352Z,97629.02
2023-03-08T19:14:31.946Z,97627.15
2023-03-08T19:18:31.028Z,97618.85
2023-03-08T19:22:33.290Z,97613.94
2023-03-08T19:26:44.888Z,97605.30
2023-03-08T19:30:42.942Z,97603.36
2023-03-08T19:34:52.012Z,97588.95
2023-03-08T19:38:51.135Z,97587.41
2023-03-08T19:42:48.990Z,97580.95
2023-03-08T19:46:47.147Z,97571.83
2023-03-08T19:50:44.966Z,97559.49
2023-03-08T19:54:43.994Z,97555.95
2023-03-08T19:58:42.036Z,97557.48
2023-03-08T20:02:40.892Z,97549.44
2023-03-08T20:06:56.950Z,97530.17
2023-03-08T20:10:56.113Z,97524.57
2023-03-08T20:14:53.796Z,97521.68
2023-03-08T20:18:52.078Z,97506.86
2023-03-08T20:22:49.982Z,97507.55
2023-03-08T20:26:49.835Z,97497.73
2023-03-08T20:30:48.812Z,97489.34
2023-03-08T20:34:46.845Z,97482.13
2023-03-08T20:38:44.802Z,97469.16
2023-03-08T20:42:43.849Z,97454.92
2023-03-08T20:46:44.785Z,97445.36
2023-03-08T20:50:43.095Z,97434.11
2023-03-08T20:54:43.897Z,97424.86
2023-03-08T20:58:41.803Z,97415.09
2023-03-08T21:02:39.826Z,97409.14
2023-03-08T21:06:40.887Z,97403.54
2023-03-08T21:10:39.753Z,97391.11
2023-03-08T21:14:37.783Z,97378.51
2023-03-08T21:18:35.748Z,97365.55
2023-03-08T21:22:33.815Z,97367.44
2023-03-08T21:26:32.787Z,97361.64
2023-03-08T21:30:30.788Z,97355.67
2023-03-08T21:34:28.851Z,97344.03
2023-03-08T21:38:26.820Z,97325.19
2023-03-08T21:42:24.803Z,97324.85
2023-03-08T21:46:22.781Z,97317.91
2023-03-08T21:50:20.784Z,97308.84
2023-03-08T21:54:18.729Z,97294.28
2023-03-08T21:58:16.662Z,97299.23
2023-03-08T22:02:14.695Z,97295.04
2023-03-08T22:06:12.630Z,97272.61
2023-03-08T22:10:10.804Z,97258.97
2023-03-08T22:14:10.640Z,97259.84
2023-03-08T22:18:08.691Z,97257.32
2023-03-08T22:22:07.638Z,97242.86
2023-03-08T22:26:05.649Z,97239.52
2023-03-08T22:30:03.644Z,97242.91
2023-03-08T22:34:02.728Z,97242.86
2023-03-08T22:38:00.706Z,97231.11
2023-03-08T22:41:59.658Z,97230.97
2023-03-08T22:45:57.623Z,97227.34
2023-03-08T22:49:55.652Z,97226.02
2023-03-08T22:53:54.696Z,97206.23
2023-03-08T22:57:52.725Z,97202.25
2023-03-08T23:01:50.610Z,97198.80
2023-03-08T23:05:48.621Z,97196.45
2023-03-08T23:09:46.576Z,97186.55
2023-03-08T23:13:47.059Z,97186.86
2023-03-08T23:17:44.589Z,97188.85
2023-03-08T23:21:44.613Z,97194.08
2023-03-08T23:25:42.509Z,97190.20
2023-03-08T23:29:40.704Z,97191.58
2023-03-08T23:33:38.658Z,97187.23
2023-03-08T23:37:36.540Z,97183.98
2023-03-08T23:41:34.536Z,97172.45
2023-03-08T23:45:32.693Z,97161.36
2023-03-08T23:49:30.555Z,97159.67
2023-03-08T23:53:28.660Z,97154.10
2023-03-08T23:57:26.534Z,97147.83
